sensor_id;sensor_type;location;lat;lon;timestamp;P1;P2;P0
65680;PMS5003;61747;54.966;73.394;2022-09-17T00:01:34;13.00;9.00;4.00
65680;PMS5003;61747;54.966;73.394;2022-09-17T00:04:00;15.25;12.50;5.00
65680;PMS5003;61747;54.966;73.394;2022-09-17T00:06:38;17.00;14.00;6.25
65680;PMS5003;61747;54.966;73.394;2022-09-17T00:09:05;17.75;15.50;7.00
65680;PMS5003;61747;54.966;73.394;2022-09-17T00:11:32;20.50;17.75;8.50
65680;PMS5003;61747;54.966;73.394;2022-09-17T00:13:59;24.00;20.50;10.00
65680;PMS5003;61747;54.966;73.394;2022-09-17T00:16:37;23.75;19.50;11.75
65680;PMS5003;61747;54.966;73.394;2022-09-17T00:19:14;28.25;23.75;13.50
65680;PMS5003;61747;54.966;73.394;2022-09-17T00:21:40;22.50;19.25;13.00
65680;PMS5003;61747;54.966;73.394;2022-09-17T00:24:11;17.25;15.00;6.00
65680;PMS5003;61747;54.966;73.394;2022-09-17T00:26:48;10.50;9.75;3.00
65680;PMS5003;61747;54.966;73.394;2022-09-17T00:29:14;6.25;6.00;3.00
65680;PMS5003;61747;54.966;73.394;2022-09-17T00:31:40;8.25;7.00;3.00
65680;PMS5003;61747;54.966;73.394;2022-09-17T00:34:17;10.50;10.00;4.25
65680;PMS5003;61747;54.966;73.394;2022-09-17T00:36:42;16.67;13.33;6.33
65680;PMS5003;61747;54.966;73.394;2022-09-17T00:39:09;13.67;12.00;6.00
65680;PMS5003;61747;54.966;73.394;2022-09-17T00:41:35;13.50;11.00;5.00
65680;PMS5003;61747;54.966;73.394;2022-09-17T00:46:46;6.50;6.00;3.00
65680;PMS5003;61747;54.966;73.394;2022-09-17T00:49:21;6.00;6.00;1.00
65680;PMS5003;61747;54.966;73.394;2022-09-17T00:51:52;6.00;4.00;2.00
65680;PMS5003;61747;54.966;73.394;2022-09-17T00:54:21;4.00;3.00;2.25
65680;PMS5003;61747;54.966;73.394;2022-09-17T00:56:48;5.75;4.00;2.00
65680;PMS5003;61747;54.966;73.394;2022-09-17T00:59:16;4.00;4.00;1.00
65680;PMS5003;61747;54.966;73.394;2022-09-17T01:01:52;5.75;5.00;1.00
65680;PMS5003;61747;54.966;73.394;2022-09-17T01:04:18;4.00;3.00;1.00
65680;PMS5003;61747;54.966;73.394;2022-09-17T01:22:36;1.25;0.25;0.00
65680;PMS5003;61747;54.966;73.394;2022-09-17T01:25:18;2.50;2.50;0.00
65680;PMS5003;61747;54.966;73.394;2022-09-17T01:38:00;8.00;4.50;4.00
65680;PMS5003;61747;54.966;73.394;2022-09-17T01:40:37;13.25;10.25;5.50
65680;PMS5003;61747;54.966;73.394;2022-09-17T01:48:09;19.00;16.00;9.00
65680;PMS5003;61747;54.966;73.394;2022-09-17T01:50:38;7.50;7.00;1.00
65680;PMS5003;61747;54.966;73.394;2022-09-17T01:53:05;10.00;9.00;5.00
65680;PMS5003;61747;54.966;73.394;2022-09-17T01:55:34;13.25;11.00;5.25
65680;PMS5003;61747;54.966;73.394;2022-09-17T01:58:04;14.00;12.00;5.50
65680;PMS5003;61747;54.966;73.394;2022-09-17T02:00:35;21.25;16.50;8.00
65680;PMS5003;61747;54.966;73.394;2022-09-17T02:05:46;25.00;20.00;12.00
65680;PMS5003;61747;54.966;73.394;2022-09-17T02:08:21;25.75;21.00;12.75
65680;PMS5003;61747;54.966;73.394;2022-09-17T02:11:01;29.00;24.00;15.00
65680;PMS5003;61747;54.966;73.394;2022-09-17T02:14:09;28.50;25.50;14.25
65680;PMS5003;61747;54.966;73.394;2022-09-17T02:16:33;31.00;26.50;16.00
65680;PMS5003;61747;54.966;73.394;2022-09-17T02:21:38;31.00;25.00;15.00
65680;PMS5003;61747;54.966;73.394;2022-09-17T02:24:07;26.25;22.25;15.00
65680;PMS5003;61747;54.966;73.394;2022-09-17T02:26:37;30.50;23.25;15.00
65680;PMS5003;61747;54.966;73.394;2022-09-17T02:29:06;33.50;26.00;16.00
65680;PMS5003;61747;54.966;73.394;2022-09-17T02:31:32;33.25;26.00;17.00
65680;PMS5003;61747;54.966;73.394;2022-09-17T02:34:04;31.75;27.50;17.75
65680;PMS5003;61747;54.966;73.394;2022-09-17T02:36:40;30.50;26.25;17.00
65680;PMS5003;61747;54.966;73.394;2022-09-17T02:39:15;32.25;28.00;17.00
65680;PMS5003;61747;54.966;73.394;2022-09-17T02:44:20;29.00;26.00;17.00
65680;PMS5003;61747;54.966;73.394;2022-09-17T02:57:41;19.25;15.00;6.00
65680;PMS5003;61747;54.966;73.394;2022-09-17T03:00:22;17.00;16.00;6.00
65680;PMS5003;61747;54.966;73.394;2022-09-17T03:05:32;16.00;14.50;5.00
65680;PMS5003;61747;54.966;73.394;2022-09-17T03:07:58;11.50;9.00;3.00
65680;PMS5003;61747;54.966;73.394;2022-09-17T03:10:25;8.00;8.00;3.00
65680;PMS5003;61747;54.966;73.394;2022-09-17T03:12:53;7.75;6.00;3.00
65680;PMS5003;61747;54.966;73.394;2022-09-17T03:15:19;7.00;6.00;2.00
65680;PMS5003;61747;54.966;73.394;2022-09-17T03:17:45;6.67;5.00;3.00
65680;PMS5003;61747;54.966;73.394;2022-09-17T03:20:21;5.00;4.00;2.00
65680;PMS5003;61747;54.966;73.394;2022-09-17T03:22:47;4.00;4.00;1.00
65680;PMS5003;61747;54.966;73.394;2022-09-17T03:25:12;2.00;2.00;0.00
65680;PMS5003;61747;54.966;73.394;2022-09-17T03:27:38;3.00;2.00;0.00
65680;PMS5003;61747;54.966;73.394;2022-09-17T03:30:05;6.00;4.00;0.00
65680;PMS5003;61747;54.966;73.394;2022-09-17T03:32:31;4.00;4.00;0.00
65680;PMS5003;61747;54.966;73.394;2022-09-17T03:34:57;3.00;3.00;0.00
65680;PMS5003;61747;54.966;73.394;2022-09-17T03:37:23;3.00;2.00;0.00
65680;PMS5003;61747;54.966;73.394;2022-09-17T03:39:49;3.00;2.00;0.00
65680;PMS5003;61747;54.966;73.394;2022-09-17T03:42:14;3.25;2.75;0.00
65680;PMS5003;61747;54.966;73.394;2022-09-17T03:44:40;4.33;2.00;0.00
65680;PMS5003;61747;54.966;73.394;2022-09-17T03:47:06;6.00;3.00;0.00
65680;PMS5003;61747;54.966;73.394;2022-09-17T03:49:32;4.00;4.00;0.00
65680;PMS5003;61747;54.966;73.394;2022-09-17T03:51:57;3.75;3.75;0.00
65680;PMS5003;61747;54.966;73.394;2022-09-17T03:54:34;5.25;5.00;1.00
65680;PMS5003;61747;54.966;73.394;2022-09-17T03:56:59;6.00;4.00;1.67
65680;PMS5003;61747;54.966;73.394;2022-09-17T03:59:25;6.67;4.00;2.00
65680;PMS5003;61747;54.966;73.394;2022-09-17T04:01:51;5.00;3.75;1.00
65680;PMS5003;61747;54.966;73.394;2022-09-17T04:04:17;6.33;6.00;2.00
65680;PMS5003;61747;54.966;73.394;2022-09-17T04:06:42;7.00;6.00;3.00
65680;PMS5003;61747;54.966;73.394;2022-09-17T04:09:08;7.00;6.00;3.00
65680;PMS5003;61747;54.966;73.394;2022-09-17T04:11:34;7.67;7.00;4.00
65680;PMS5003;61747;54.966;73.394;2022-09-17T04:14:00;9.00;8.00;3.00
65680;PMS5003;61747;54.966;73.394;2022-09-17T04:16:25;9.00;7.00;3.00
65680;PMS5003;61747;54.966;73.394;2022-09-17T04:18:51;8.00;6.00;1.67
65680;PMS5003;61747;54.966;73.394;2022-09-17T04:21:17;7.00;6.00;2.00
65680;PMS5003;61747;54.966;73.394;2022-09-17T04:23:42;10.67;9.33;3.00
65680;PMS5003;61747;54.966;73.394;2022-09-17T04:26:08;16.33;14.00;5.00
65680;PMS5003;61747;54.966;73.394;2022-09-17T04:28:34;13.67;10.67;5.00
65680;PMS5003;61747;54.966;73.394;2022-09-17T04:31:05;14.50;13.75;7.00
65680;PMS5003;61747;54.966;73.394;2022-09-17T04:33:30;19.67;15.00;7.00
65680;PMS5003;61747;54.966;73.394;2022-09-17T04:36:06;21.00;18.50;7.25
65680;PMS5003;61747;54.966;73.394;2022-09-17T04:38:32;18.00;16.33;7.00
65680;PMS5003;61747;54.966;73.394;2022-09-17T04:40:58;19.33;17.00;6.67
65680;PMS5003;61747;54.966;73.394;2022-09-17T04:43:29;22.50;18.00;10.50
65680;PMS5003;61747;54.966;73.394;2022-09-17T04:46:03;20.00;17.50;9.00
65680;PMS5003;61747;54.966;73.394;2022-09-17T04:48:29;20.00;17.00;9.00
65680;PMS5003;61747;54.966;73.394;2022-09-17T04:50:54;22.00;19.33;11.00
65680;PMS5003;61747;54.966;73.394;2022-09-17T04:53:24;17.50;16.00;5.00
65680;PMS5003;61747;54.966;73.394;2022-09-17T04:55:50;16.00;8.33;3.00
65680;PMS5003;61747;54.966;73.394;2022-09-17T04:58:17;9.50;5.50;1.00
65680;PMS5003;61747;54.966;73.394;2022-09-17T05:00:42;11.67;8.00;4.00
65680;PMS5003;61747;54.966;73.394;2022-09-17T05:03:08;10.67;10.00;5.00
65680;PMS5003;61747;54.966;73.394;2022-09-17T05:05:44;13.00;7.00;4.00
65680;PMS5003;61747;54.966;73.394;2022-09-17T05:08:10;8.67;5.00;2.00
65680;PMS5003;61747;54.966;73.394;2022-09-17T05:10:36;6.67;4.33;1.00
65680;PMS5003;61747;54.966;73.394;2022-09-17T05:13:04;1.00;1.00;0.00
65680;PMS5003;61747;54.966;73.394;2022-09-17T05:15:32;0.00;0.00;0.00
65680;PMS5003;61747;54.966;73.394;2022-09-17T05:17:57;0.00;0.00;0.00
65680;PMS5003;61747;54.966;73.394;2022-09-17T05:20:23;1.25;0.50;0.00
65680;PMS5003;61747;54.966;73.394;2022-09-17T05:22:55;0.00;0.00;0.00
65680;PMS5003;61747;54.966;73.394;2022-09-17T05:25:25;0.00;0.00;0.00
65680;PMS5003;61747;54.966;73.394;2022-09-17T05:28:01;0.00;0.00;0.00
65680;PMS5003;61747;54.966;73.394;2022-09-17T05:30:31;0.00;0.00;0.00
65680;PMS5003;61747;54.966;73.394;2022-09-17T05:32:57;0.00;0.00;0.00
65680;PMS5003;61747;54.966;73.394;2022-09-17T05:35:23;0.00;0.00;0.00
65680;PMS5003;61747;54.966;73.394;2022-09-17T05:37:59;0.00;0.00;0.00
65680;PMS5003;61747;54.966;73.394;2022-09-17T05:40:26;0.00;0.00;0.00
65680;PMS5003;61747;54.966;73.394;2022-09-17T05:43:03;0.00;0.00;0.00
65680;PMS5003;61747;54.966;73.394;2022-09-17T05:45:40;0.00;0.00;0.00
65680;PMS5003;61747;54.966;73.394;2022-09-17T05:48:06;0.00;0.00;0.00
65680;PMS5003;61747;54.966;73.394;2022-09-17T05:50:32;0.00;0.00;0.00
65680;PMS5003;61747;54.966;73.394;2022-09-17T05:53:09;0.00;0.00;0.00
65680;PMS5003;61747;54.966;73.394;2022-09-17T05:55:35;0.00;0.00;0.00
65680;PMS5003;61747;54.966;73.394;2022-09-17T05:58:12;0.00;0.00;0.00
65680;PMS5003;61747;54.966;73.394;2022-09-17T06:00:38;1.00;0.00;0.00
65680;PMS5003;61747;54.966;73.394;2022-09-17T06:03:05;0.00;0.00;0.00
65680;PMS5003;61747;54.966;73.394;2022-09-17T06:05:34;0.00;0.00;0.00
65680;PMS5003;61747;54.966;73.394;2022-09-17T06:08:00;0.00;0.00;0.00
65680;PMS5003;61747;54.966;73.394;2022-09-17T06:10:26;0.00;0.00;0.00
65680;PMS5003;61747;54.966;73.394;2022-09-17T06:12:59;0.75;0.00;0.00
65680;PMS5003;61747;54.966;73.394;2022-09-17T06:15:33;0.00;0.00;0.00
65680;PMS5003;61747;54.966;73.394;2022-09-17T06:18:03;0.00;0.00;0.00
65680;PMS5003;61747;54.966;73.394;2022-09-17T06:20:36;0.00;0.00;0.00
65680;PMS5003;61747;54.966;73.394;2022-09-17T06:23:01;0.00;0.00;0.00
65680;PMS5003;61747;54.966;73.394;2022-09-17T06:25:27;0.00;0.00;0.00
65680;PMS5003;61747;54.966;73.394;2022-09-17T06:27:53;0.00;0.00;0.00
65680;PMS5003;61747;54.966;73.394;2022-09-17T06:30:19;0.00;0.00;0.00
65680;PMS5003;61747;54.966;73.394;2022-09-17T06:32:54;0.00;0.00;0.00
65680;PMS5003;61747;54.966;73.394;2022-09-17T06:35:20;1.00;0.00;0.00
65680;PMS5003;61747;54.966;73.394;2022-09-17T06:37:51;0.00;0.00;0.00
65680;PMS5003;61747;54.966;73.394;2022-09-17T06:40:25;0.00;0.00;0.00
65680;PMS5003;61747;54.966;73.394;2022-09-17T06:42:55;0.00;0.00;0.00
65680;PMS5003;61747;54.966;73.394;2022-09-17T06:45:27;0.00;0.00;0.00
65680;PMS5003;61747;54.966;73.394;2022-09-17T06:47:52;0.00;0.00;0.00
65680;PMS5003;61747;54.966;73.394;2022-09-17T06:50:18;0.00;0.00;0.00
65680;PMS5003;61747;54.966;73.394;2022-09-17T06:52:51;0.00;0.00;0.00
65680;PMS5003;61747;54.966;73.394;2022-09-17T06:55:17;0.00;0.00;0.00
65680;PMS5003;61747;54.966;73.394;2022-09-17T06:57:43;1.00;0.00;0.00
65680;PMS5003;61747;54.966;73.394;2022-09-17T07:00:09;0.00;0.00;0.00
65680;PMS5003;61747;54.966;73.394;2022-09-17T07:02:35;0.00;0.00;0.00
65680;PMS5003;61747;54.966;73.394;2022-09-17T07:05:11;0.00;0.00;0.00
65680;PMS5003;61747;54.966;73.394;2022-09-17T07:07:37;0.00;0.00;0.00
65680;PMS5003;61747;54.966;73.394;2022-09-17T07:10:05;0.00;0.00;0.00
65680;PMS5003;61747;54.966;73.394;2022-09-17T07:12:38;0.00;0.00;0.00
65680;PMS5003;61747;54.966;73.394;2022-09-17T07:15:04;1.00;0.00;0.00
65680;PMS5003;61747;54.966;73.394;2022-09-17T07:17:30;1.00;0.00;0.00
65680;PMS5003;61747;54.966;73.394;2022-09-17T07:20:01;0.00;0.00;0.00
65680;PMS5003;61747;54.966;73.394;2022-09-17T07:22:31;0.00;0.00;0.00
65680;PMS5003;61747;54.966;73.394;2022-09-17T07:24:57;0.00;0.00;0.00
65680;PMS5003;61747;54.966;73.394;2022-09-17T07:27:22;0.00;0.00;0.00
65680;PMS5003;61747;54.966;73.394;2022-09-17T07:29:48;0.00;0.00;0.00
65680;PMS5003;61747;54.966;73.394;2022-09-17T07:32:24;0.00;0.00;0.00
65680;PMS5003;61747;54.966;73.394;2022-09-17T07:35:00;0.00;0.00;0.00
65680;PMS5003;61747;54.966;73.394;2022-09-17T07:37:26;1.00;0.00;0.00
65680;PMS5003;61747;54.966;73.394;2022-09-17T07:39:55;2.00;0.00;0.00
65680;PMS5003;61747;54.966;73.394;2022-09-17T07:42:20;1.00;0.00;0.00
65680;PMS5003;61747;54.966;73.394;2022-09-17T07:44:56;0.00;0.00;0.00
65680;PMS5003;61747;54.966;73.394;2022-09-17T07:47:31;0.00;0.00;0.00
65680;PMS5003;61747;54.966;73.394;2022-09-17T07:49:57;0.00;0.00;0.00
65680;PMS5003;61747;54.966;73.394;2022-09-17T07:52:23;0.00;0.00;0.00
65680;PMS5003;61747;54.966;73.394;2022-09-17T07:54:49;0.00;0.00;0.00
65680;PMS5003;61747;54.966;73.394;2022-09-17T07:57:14;0.00;0.00;0.00
65680;PMS5003;61747;54.966;73.394;2022-09-17T07:59:40;0.25;0.00;0.00
65680;PMS5003;61747;54.966;73.394;2022-09-17T08:02:11;1.00;0.00;0.00
65680;PMS5003;61747;54.966;73.394;2022-09-17T08:04:40;0.00;0.00;0.00
65680;PMS5003;61747;54.966;73.394;2022-09-17T08:07:06;0.00;0.00;0.00
65680;PMS5003;61747;54.966;73.394;2022-09-17T08:09:32;0.00;0.00;0.00
65680;PMS5003;61747;54.966;73.394;2022-09-17T08:12:02;1.00;0.00;0.00
65680;PMS5003;61747;54.966;73.394;2022-09-17T08:14:28;0.33;0.00;0.00
65680;PMS5003;61747;54.966;73.394;2022-09-17T08:16:53;0.00;0.00;0.00
65680;PMS5003;61747;54.966;73.394;2022-09-17T08:19:19;0.00;0.00;0.00
65680;PMS5003;61747;54.966;73.394;2022-09-17T08:21:50;0.00;0.00;0.00
65680;PMS5003;61747;54.966;73.394;2022-09-17T08:24:21;0.00;0.00;0.00
65680;PMS5003;61747;54.966;73.394;2022-09-17T08:26:52;0.00;0.00;0.00
65680;PMS5003;61747;54.966;73.394;2022-09-17T08:29:18;0.00;0.00;0.00
65680;PMS5003;61747;54.966;73.394;2022-09-17T08:31:44;0.00;0.00;0.00
65680;PMS5003;61747;54.966;73.394;2022-09-17T08:34:10;0.00;0.00;0.00
65680;PMS5003;61747;54.966;73.394;2022-09-17T08:36:35;0.00;0.00;0.00
65680;PMS5003;61747;54.966;73.394;2022-09-17T08:39:01;0.00;0.00;0.00
65680;PMS5003;61747;54.966;73.394;2022-09-17T08:41:31;0.00;0.00;0.00
65680;PMS5003;61747;54.966;73.394;2022-09-17T08:46:33;0.00;0.00;0.00
65680;PMS5003;61747;54.966;73.394;2022-09-17T09:02:39;0.00;0.00;0.00
65680;PMS5003;61747;54.966;73.394;2022-09-17T09:05:13;0.00;0.00;0.00
65680;PMS5003;61747;54.966;73.394;2022-09-17T09:07:46;0.00;0.00;0.00
65680;PMS5003;61747;54.966;73.394;2022-09-17T09:12:46;0.00;0.00;0.00
65680;PMS5003;61747;54.966;73.394;2022-09-17T09:18:18;0.00;0.00;0.00
65680;PMS5003;61747;54.966;73.394;2022-09-17T09:21:05;0.50;0.00;0.00
65680;PMS5003;61747;54.966;73.394;2022-09-17T09:31:38;1.00;0.00;0.00
65680;PMS5003;61747;54.966;73.394;2022-09-17T09:34:06;1.00;0.00;0.00
65680;PMS5003;61747;54.966;73.394;2022-09-17T09:36:35;0.00;0.00;0.00
65680;PMS5003;61747;54.966;73.394;2022-09-17T09:39:24;0.00;0.00;0.00
65680;PMS5003;61747;54.966;73.394;2022-09-17T09:41:52;1.00;0.00;0.00
65680;PMS5003;61747;54.966;73.394;2022-09-17T09:44:22;0.00;0.00;0.00
65680;PMS5003;61747;54.966;73.394;2022-09-17T10:00:23;1.00;1.00;0.00
65680;PMS5003;61747;54.966;73.394;2022-09-17T10:02:55;1.00;0.00;0.00
65680;PMS5003;61747;54.966;73.394;2022-09-17T10:05:31;0.00;0.00;0.00
65680;PMS5003;61747;54.966;73.394;2022-09-17T10:07:57;0.00;0.00;0.00
65680;PMS5003;61747;54.966;73.394;2022-09-17T10:10:23;2.00;1.00;0.00
65680;PMS5003;61747;54.966;73.394;2022-09-17T10:12:53;0.00;0.00;0.00
65680;PMS5003;61747;54.966;73.394;2022-09-17T10:15:29;0.00;0.00;0.00
65680;PMS5003;61747;54.966;73.394;2022-09-17T10:18:18;0.00;0.00;0.00
65680;PMS5003;61747;54.966;73.394;2022-09-17T10:20:52;0.00;0.00;0.00
65680;PMS5003;61747;54.966;73.394;2022-09-17T10:23:22;0.00;0.00;0.00
65680;PMS5003;61747;54.966;73.394;2022-09-17T10:25:58;1.75;0.00;0.00
65680;PMS5003;61747;54.966;73.394;2022-09-17T10:28:28;0.75;0.75;0.00
65680;PMS5003;61747;54.966;73.394;2022-09-17T10:30:59;2.00;1.00;0.00
65680;PMS5003;61747;54.966;73.394;2022-09-17T10:33:30;0.25;0.00;0.00
65680;PMS5003;61747;54.966;73.394;2022-09-17T10:35:58;1.00;1.00;0.00
65680;PMS5003;61747;54.966;73.394;2022-09-17T10:43:41;1.00;1.00;0.00
65680;PMS5003;61747;54.966;73.394;2022-09-17T10:46:17;0.00;0.00;0.00
65680;PMS5003;61747;54.966;73.394;2022-09-17T10:48:45;0.00;0.00;0.00
65680;PMS5003;61747;54.966;73.394;2022-09-17T10:51:19;1.00;0.00;0.00
65680;PMS5003;61747;54.966;73.394;2022-09-17T10:54:00;1.00;1.00;0.00
65680;PMS5003;61747;54.966;73.394;2022-09-17T10:56:42;0.00;0.00;0.00
65680;PMS5003;61747;54.966;73.394;2022-09-17T11:05:24;0.75;0.00;0.00
65680;PMS5003;61747;54.966;73.394;2022-09-17T11:07:32;2.00;1.00;0.00
65680;PMS5003;61747;54.966;73.394;2022-09-17T11:17:56;4.00;2.25;0.00
65680;PMS5003;61747;54.966;73.394;2022-09-17T11:25:45;1.00;0.00;0.00
65680;PMS5003;61747;54.966;73.394;2022-09-17T11:33:33;0.00;0.00;0.00
65680;PMS5003;61747;54.966;73.394;2022-09-17T11:36:22;0.00;0.00;0.00
65680;PMS5003;61747;54.966;73.394;2022-09-17T11:38:50;0.00;0.00;0.00
65680;PMS5003;61747;54.966;73.394;2022-09-17T11:41:22;0.00;0.00;0.00
65680;PMS5003;61747;54.966;73.394;2022-09-17T11:44:02;1.00;0.00;0.00
65680;PMS5003;61747;54.966;73.394;2022-09-17T11:46:33;2.00;1.00;0.00
65680;PMS5003;61747;54.966;73.394;2022-09-17T11:52:03;3.00;1.00;0.00
65680;PMS5003;61747;54.966;73.394;2022-09-17T11:54:53;1.00;0.00;0.00
65680;PMS5003;61747;54.966;73.394;2022-09-17T11:57:26;3.00;3.00;0.00
65680;PMS5003;61747;54.966;73.394;2022-09-17T12:03:01;3.00;3.00;0.00
65680;PMS5003;61747;54.966;73.394;2022-09-17T12:05:51;0.00;0.00;0.00
65680;PMS5003;61747;54.966;73.394;2022-09-17T12:11:21;5.50;4.50;0.00
65680;PMS5003;61747;54.966;73.394;2022-09-17T12:13:56;3.25;3.00;0.00
65680;PMS5003;61747;54.966;73.394;2022-09-17T12:16:23;3.00;3.00;0.00
65680;PMS5003;61747;54.966;73.394;2022-09-17T12:18:52;6.00;4.50;1.00
65680;PMS5003;61747;54.966;73.394;2022-09-17T12:21:23;4.00;4.00;2.00
65680;PMS5003;61747;54.966;73.394;2022-09-17T12:23:53;3.00;3.00;0.00
65680;PMS5003;61747;54.966;73.394;2022-09-17T12:31:24;4.50;4.50;0.00
65680;PMS5003;61747;54.966;73.394;2022-09-17T12:34:18;5.25;4.75;0.75
65680;PMS5003;61747;54.966;73.394;2022-09-17T12:37:15;10.75;8.00;4.00
65680;PMS5003;61747;54.966;73.394;2022-09-17T12:39:43;10.50;7.00;4.00
65680;PMS5003;61747;54.966;73.394;2022-09-17T12:50:16;16.25;13.75;6.00
65680;PMS5003;61747;54.966;73.394;2022-09-17T13:00:24;14.00;9.25;5.00
65680;PMS5003;61747;54.966;73.394;2022-09-17T13:10:40;15.00;13.00;6.00
65680;PMS5003;61747;54.966;73.394;2022-09-17T13:15:42;19.33;16.00;8.67
65680;PMS5003;61747;54.966;73.394;2022-09-17T13:18:26;19.50;18.00;8.00
65680;PMS5003;61747;54.966;73.394;2022-09-17T13:23:30;23.00;17.00;7.75
65680;PMS5003;61747;54.966;73.394;2022-09-17T13:26:02;20.00;18.00;7.00
65680;PMS5003;61747;54.966;73.394;2022-09-17T13:28:37;22.00;19.00;8.50
65680;PMS5003;61747;54.966;73.394;2022-09-17T13:31:03;21.00;18.00;7.50
65680;PMS5003;61747;54.966;73.394;2022-09-17T13:42:43;16.25;11.75;6.00
65680;PMS5003;61747;54.966;73.394;2022-09-17T13:45:12;21.25;16.75;8.00
65680;PMS5003;61747;54.966;73.394;2022-09-17T13:50:39;24.25;19.50;11.50
65680;PMS5003;61747;54.966;73.394;2022-09-17T14:01:05;23.00;19.00;8.00
65680;PMS5003;61747;54.966;73.394;2022-09-17T14:18:54;26.00;22.50;13.00
65680;PMS5003;61747;54.966;73.394;2022-09-17T14:21:26;24.00;20.75;13.00
65680;PMS5003;61747;54.966;73.394;2022-09-17T14:23:54;25.00;21.00;12.00
65680;PMS5003;61747;54.966;73.394;2022-09-17T14:26:30;27.00;22.00;11.25
65680;PMS5003;61747;54.966;73.394;2022-09-17T14:31:29;33.50;24.75;14.50
65680;PMS5003;61747;54.966;73.394;2022-09-17T14:33:55;39.50;28.50;17.00
65680;PMS5003;61747;54.966;73.394;2022-09-17T14:36:21;33.75;27.25;16.50
65680;PMS5003;61747;54.966;73.394;2022-09-17T14:38:57;29.50;23.50;16.50
65680;PMS5003;61747;54.966;73.394;2022-09-17T14:41:23;24.00;20.00;15.00
65680;PMS5003;61747;54.966;73.394;2022-09-17T14:46:22;23.00;20.00;11.00
65680;PMS5003;61747;54.966;73.394;2022-09-17T14:48:49;21.50;18.00;9.00
65680;PMS5003;61747;54.966;73.394;2022-09-17T14:56:15;33.00;27.00;16.00
65680;PMS5003;61747;54.966;73.394;2022-09-17T14:58:52;28.50;25.50;16.50
65680;PMS5003;61747;54.966;73.394;2022-09-17T15:01:25;30.25;25.75;16.50
65680;PMS5003;61747;54.966;73.394;2022-09-17T15:06:42;27.50;23.00;15.00
65680;PMS5003;61747;54.966;73.394;2022-09-17T15:09:18;31.50;25.00;16.00
65680;PMS5003;61747;54.966;73.394;2022-09-17T15:11:44;33.25;26.75;16.00
65680;PMS5003;61747;54.966;73.394;2022-09-17T15:14:19;34.00;26.50;18.00
65680;PMS5003;61747;54.966;73.394;2022-09-17T15:16:55;30.75;25.00;16.00
65680;PMS5003;61747;54.966;73.394;2022-09-17T15:19:36;27.00;23.00;16.00
65680;PMS5003;61747;54.966;73.394;2022-09-17T15:22:52;27.50;21.00;13.00
65680;PMS5003;61747;54.966;73.394;2022-09-17T15:25:08;29.50;22.00;13.00
65680;PMS5003;61747;54.966;73.394;2022-09-17T15:27:38;25.75;19.50;12.00
65680;PMS5003;61747;54.966;73.394;2022-09-17T15:32:33;22.00;20.00;10.00
65680;PMS5003;61747;54.966;73.394;2022-09-17T15:37:52;24.75;18.00;9.75
65680;PMS5003;61747;54.966;73.394;2022-09-17T15:40:26;22.00;17.00;7.50
65680;PMS5003;61747;54.966;73.394;2022-09-17T15:42:54;19.25;16.00;7.00
65680;PMS5003;61747;54.966;73.394;2022-09-17T15:45:25;18.25;18.00;7.00
65680;PMS5003;61747;54.966;73.394;2022-09-17T15:47:57;15.75;15.00;5.00
65680;PMS5003;61747;54.966;73.394;2022-09-17T15:50:33;14.50;14.00;4.00
65680;PMS5003;61747;54.966;73.394;2022-09-17T15:55:35;23.25;19.75;10.00
65680;PMS5003;61747;54.966;73.394;2022-09-17T15:58:02;23.50;19.25;10.00
65680;PMS5003;61747;54.966;73.394;2022-09-17T16:00:33;20.50;18.00;8.25
65680;PMS5003;61747;54.966;73.394;2022-09-17T16:03:08;18.00;16.00;8.00
65680;PMS5003;61747;54.966;73.394;2022-09-17T16:05:55;17.25;14.75;7.00
65680;PMS5003;61747;54.966;73.394;2022-09-17T16:08:32;21.00;18.50;10.00
65680;PMS5003;61747;54.966;73.394;2022-09-17T16:11:03;23.75;22.50;12.50
65680;PMS5003;61747;54.966;73.394;2022-09-17T16:13:34;23.00;21.00;13.00
65680;PMS5003;61747;54.966;73.394;2022-09-17T16:16:00;20.75;20.00;12.00
65680;PMS5003;61747;54.966;73.394;2022-09-17T16:18:31;24.50;21.00;13.00
65680;PMS5003;61747;54.966;73.394;2022-09-17T16:20:57;27.00;21.00;13.00
65680;PMS5003;61747;54.966;73.394;2022-09-17T16:23:27;25.00;22.00;12.00
65680;PMS5003;61747;54.966;73.394;2022-09-17T16:25:53;22.33;19.00;10.00
65680;PMS5003;61747;54.966;73.394;2022-09-17T16:28:19;22.00;19.00;9.00
65680;PMS5003;61747;54.966;73.394;2022-09-17T16:30:45;18.00;16.00;7.00
65680;PMS5003;61747;54.966;73.394;2022-09-17T16:33:12;15.75;13.00;5.00
65680;PMS5003;61747;54.966;73.394;2022-09-17T16:35:38;16.00;12.50;5.50
65680;PMS5003;61747;54.966;73.394;2022-09-17T16:38:04;14.00;9.00;4.00
65680;PMS5003;61747;54.966;73.394;2022-09-17T16:40:30;15.25;9.25;4.00
65680;PMS5003;61747;54.966;73.394;2022-09-17T16:43:00;14.00;9.00;4.00
65680;PMS5003;61747;54.966;73.394;2022-09-17T16:45:26;13.00;7.75;4.00
65680;PMS5003;61747;54.966;73.394;2022-09-17T16:47:52;13.00;6.75;4.75
65680;PMS5003;61747;54.966;73.394;2022-09-17T16:50:23;9.00;7.00;4.00
65680;PMS5003;61747;54.966;73.394;2022-09-17T16:52:48;8.00;8.00;4.00
65680;PMS5003;61747;54.966;73.394;2022-09-17T16:55:15;8.50;7.00;4.00
65680;PMS5003;61747;54.966;73.394;2022-09-17T16:57:41;9.50;6.00;4.00
65680;PMS5003;61747;54.966;73.394;2022-09-17T17:00:08;10.00;8.75;4.50
65680;PMS5003;61747;54.966;73.394;2022-09-17T17:02:42;11.25;10.75;4.00
65680;PMS5003;61747;54.966;73.394;2022-09-17T17:05:17;13.00;9.00;4.00
65680;PMS5003;61747;54.966;73.394;2022-09-17T17:07:43;13.00;8.33;4.00
65680;PMS5003;61747;54.966;73.394;2022-09-17T17:10:09;15.00;13.00;7.00
65680;PMS5003;61747;54.966;73.394;2022-09-17T17:12:45;17.00;12.50;6.00
65680;PMS5003;61747;54.966;73.394;2022-09-17T17:15:11;15.25;12.50;5.25
65680;PMS5003;61747;54.966;73.394;2022-09-17T17:17:36;14.00;11.00;4.00
65680;PMS5003;61747;54.966;73.394;2022-09-17T17:20:07;13.00;8.00;3.00
65680;PMS5003;61747;54.966;73.394;2022-09-17T17:22:40;10.00;4.00;3.00
65680;PMS5003;61747;54.966;73.394;2022-09-17T17:25:08;9.00;8.00;4.00
65680;PMS5003;61747;54.966;73.394;2022-09-17T17:27:34;8.50;8.00;3.75
65680;PMS5003;61747;54.966;73.394;2022-09-17T17:30:00;7.00;6.00;3.67
65680;PMS5003;61747;54.966;73.394;2022-09-17T17:32:29;8.00;7.00;4.00
65680;PMS5003;61747;54.966;73.394;2022-09-17T17:34:54;6.67;6.67;4.00
65680;PMS5003;61747;54.966;73.394;2022-09-17T17:37:20;10.33;7.00;4.00
65680;PMS5003;61747;54.966;73.394;2022-09-17T17:39:58;10.50;6.50;4.00
65680;PMS5003;61747;54.966;73.394;2022-09-17T17:42:24;11.50;8.50;4.00
65680;PMS5003;61747;54.966;73.394;2022-09-17T17:44:49;9.67;6.00;4.00
65680;PMS5003;61747;54.966;73.394;2022-09-17T17:47:15;7.00;5.00;4.00
65680;PMS5003;61747;54.966;73.394;2022-09-17T17:49:48;8.25;7.25;4.00
65680;PMS5003;61747;54.966;73.394;2022-09-17T17:52:18;7.50;6.00;4.00
65680;PMS5003;61747;54.966;73.394;2022-09-17T17:54:43;9.00;8.00;4.00
65680;PMS5003;61747;54.966;73.394;2022-09-17T17:57:09;8.00;7.00;4.00
65680;PMS5003;61747;54.966;73.394;2022-09-17T17:59:35;8.00;5.00;3.00
65680;PMS5003;61747;54.966;73.394;2022-09-17T18:02:01;8.00;7.00;3.75